createdAt,value
2019-02-20T00:01:05.321Z,65.80
2019-02-20T00:03:38.999Z,65.80
2019-02-20T00:06:12.502Z,65.80
2019-02-20T00:08:45.978Z,65.80
2019-02-20T00:11:19.548Z,65.80
2019-02-20T00:13:53.033Z,65.80
2019-02-20T00:16:26.497Z,65.80
2019-02-20T00:19:00.005Z,65.80
2019-02-20T00:21:33.598Z,65.90
2019-02-20T00:24:07.133Z,65.90
2019-02-20T00:26:40.669Z,65.90
2019-02-20T00:29:14.169Z,65.90
2019-02-20T00:31:47.627Z,66.00
2019-02-20T00:34:21.226Z,66.00
2019-02-20T00:36:54.736Z,66.00
2019-02-20T00:39:28.300Z,66.00
2019-02-20T00:42:01.766Z,66.00
2019-02-20T00:44:42.614Z,66.00
2019-02-20T00:47:23.500Z,66.10
2019-02-20T00:49:56.965Z,66.00
2019-02-20T00:52:50.167Z,66.10
2019-02-20T00:55:23.237Z,66.10
2019-02-20T00:57:56.737Z,66.10
2019-02-20T01:00:30.217Z,66.10
2019-02-20T01:03:04.001Z,66.10
2019-02-20T01:05:37.477Z,66.20
2019-02-20T01:08:11.065Z,66.10
2019-02-20T01:10:44.530Z,66.10
2019-02-20T01:13:18.179Z,66.10
2019-02-20T01:15:51.642Z,66.20
2019-02-20T01:18:25.214Z,66.20
2019-02-20T01:20:58.681Z,66.10
2019-02-20T01:23:32.186Z,66.20
2019-02-20T01:26:05.648Z,66.20
2019-02-20T01:28:39.161Z,66.20
2019-02-20T01:31:12.653Z,66.20
2019-02-20T01:33:46.205Z,66.20
2019-02-20T01:36:19.886Z,66.30
2019-02-20T01:38:53.373Z,66.30
2019-02-20T01:41:26.969Z,66.30
2019-02-20T01:44:00.454Z,66.40
2019-02-20T01:46:35.609Z,66.30
2019-02-20T01:49:09.120Z,66.30
2019-02-20T01:51:42.609Z,66.30
2019-02-20T01:54:16.108Z,66.40
2019-02-20T01:56:49.642Z,66.40
2019-02-20T01:59:23.209Z,66.40
2019-02-20T02:01:56.677Z,66.50
2019-02-20T02:04:30.161Z,66.50
2019-02-20T02:07:03.697Z,66.40
2019-02-20T02:09:37.189Z,66.40
2019-02-20T02:12:10.721Z,66.50
2019-02-20T02:14:44.284Z,66.40
2019-02-20T02:17:17.762Z,66.50
2019-02-20T02:19:51.250Z,66.50
2019-02-20T02:22:24.802Z,66.50
2019-02-20T02:24:58.459Z,66.50
2019-02-20T02:27:31.966Z,66.50
2019-02-20T02:30:11.601Z,66.60
2019-02-20T02:32:45.098Z,66.60
2019-02-20T02:35:18.606Z,66.60
2019-02-20T02:37:52.080Z,66.60
2019-02-20T02:40:25.639Z,66.60
2019-02-20T02:42:59.105Z,66.70
2019-02-20T02:45:32.611Z,66.70
2019-02-20T02:48:06.074Z,66.70
2019-02-20T02:50:39.561Z,66.70
2019-02-20T02:53:13.170Z,66.70
2019-02-20T02:55:46.760Z,66.70
2019-02-20T02:58:20.297Z,66.70
2019-02-20T03:00:54.344Z,66.70
2019-02-20T03:03:27.925Z,66.70
2019-02-20T03:06:01.410Z,66.70
2019-02-20T03:08:34.882Z,66.70
2019-02-20T03:11:08.386Z,66.70
2019-02-20T03:13:41.852Z,66.70
2019-02-20T03:16:15.425Z,66.70
2019-02-20T03:18:49.059Z,66.70
2019-02-20T03:21:22.569Z,66.80
2019-02-20T03:23:56.040Z,66.80
2019-02-20T03:26:29.539Z,66.80
2019-02-20T03:29:03.029Z,66.80
2019-02-20T03:31:36.597Z,66.80
2019-02-20T03:34:10.211Z,66.80
2019-02-20T03:36:43.752Z,66.80
2019-02-20T03:39:17.258Z,66.90
2019-02-20T03:41:50.788Z,66.90
2019-02-20T03:44:24.294Z,66.90
2019-02-20T03:46:57.763Z,66.90
2019-02-20T03:49:31.254Z,66.90
2019-02-20T03:52:04.790Z,66.90
2019-02-20T03:54:38.281Z,66.90
2019-02-20T03:57:11.745Z,66.90
2019-02-20T03:59:45.515Z,66.90
2019-02-20T04:02:19.058Z,66.90
2019-02-20T04:04:52.554Z,67.00
2019-02-20T04:07:26.029Z,67.00
2019-02-20T04:09:59.518Z,67.10
2019-02-20T04:12:32.977Z,67.00
2019-02-20T04:15:07.522Z,67.10
2019-02-20T04:17:41.046Z,66.60
2019-02-20T04:20:14.615Z,66.30
2019-02-20T04:22:48.198Z,66.40
2019-02-20T04:25:21.694Z,66.30
2019-02-20T04:27:55.239Z,66.60
2019-02-20T04:30:28.731Z,66.90
2019-02-20T04:33:02.226Z,67.00
2019-02-20T04:35:35.766Z,67.00
2019-02-20T04:38:09.277Z,67.00
2019-02-20T04:40:42.746Z,67.00
2019-02-20T04:43:16.273Z,67.00
2019-02-20T04:45:49.817Z,67.00
2019-02-20T04:48:23.310Z,67.00
2019-02-20T04:50:56.801Z,67.00
2019-02-20T04:53:30.307Z,67.20
2019-02-20T04:56:03.849Z,67.30
2019-02-20T04:58:37.589Z,67.40
2019-02-20T05:01:11.061Z,67.30
2019-02-20T05:03:44.549Z,67.30
2019-02-20T05:06:18.015Z,67.30
2019-02-20T05:08:51.506Z,67.30
2019-02-20T05:11:25.030Z,67.30
2019-02-20T05:13:58.555Z,67.30
2019-02-20T05:16:32.100Z,67.30
2019-02-20T05:19:05.612Z,67.30
2019-02-20T05:21:39.084Z,67.30
2019-02-20T05:24:23.529Z,67.30
2019-02-20T05:26:47.937Z,67.30
2019-02-20T05:29:21.655Z,67.30
2019-02-20T05:31:55.199Z,67.30
2019-02-20T05:34:28.697Z,67.30
2019-02-20T05:37:02.251Z,67.30
2019-02-20T05:39:35.751Z,67.30
2019-02-20T05:42:09.218Z,67.30
2019-02-20T05:44:42.712Z,67.30
2019-02-20T05:47:16.219Z,67.30
2019-02-20T05:49:49.791Z,67.30
2019-02-20T05:52:23.291Z,67.20
2019-02-20T05:54:56.802Z,67.20
2019-02-20T05:57:30.260Z,67.20
2019-02-20T06:00:05.686Z,67.20
2019-02-20T06:02:39.150Z,67.20
2019-02-20T06:05:12.785Z,67.10
2019-02-20T06:07:46.271Z,67.00
2019-02-20T06:10:19.849Z,66.30
2019-02-20T06:12:53.372Z,66.10
2019-02-20T06:15:26.858Z,66.00
2019-02-20T06:18:00.325Z,65.90
2019-02-20T06:20:33.828Z,65.90
2019-02-20T06:23:07.376Z,65.90
2019-02-20T06:25:40.938Z,65.80
2019-02-20T06:28:14.411Z,65.80
2019-02-20T06:30:47.982Z,65.70
2019-02-20T06:33:21.461Z,65.60
2019-02-20T06:35:54.972Z,65.50
2019-02-20T06:38:28.443Z,65.50
2019-02-20T06:41:01.946Z,65.50
2019-02-20T06:43:35.477Z,65.40
2019-02-20T06:46:08.961Z,65.40
2019-02-20T06:48:42.498Z,65.30
2019-02-20T06:51:15.998Z,65.20
2019-02-20T06:53:49.546Z,65.20
2019-02-20T06:56:23.105Z,65.20
2019-02-20T06:58:56.606Z,65.10
2019-02-20T07:01:30.070Z,65.10
2019-02-20T07:04:03.639Z,65.00
2019-02-20T07:06:45.834Z,64.90
2019-02-20T07:09:51.076Z,65.00
2019-02-20T07:12:33.603Z,64.90
2019-02-20T07:15:15.941Z,65.00
2019-02-20T07:18:10.798Z,64.80
2019-02-20T07:21:11.374Z,64.60
2019-02-20T07:23:56.293Z,64.80
2019-02-20T07:26:38.434Z,64.80
2019-02-20T07:29:20.575Z,65.00
2019-02-20T07:31:54.064Z,65.30
2019-02-20T07:34:27.629Z,65.40
2019-02-20T07:37:01.205Z,65.60
2019-02-20T07:39:34.707Z,65.70
2019-02-20T07:42:08.239Z,65.70
2019-02-20T07:44:41.724Z,65.80
2019-02-20T07:47:15.201Z,65.90
2019-02-20T07:49:48.682Z,66.00
2019-02-20T07:52:22.148Z,66.00
2019-02-20T07:54:55.642Z,66.00
2019-02-20T07:57:29.202Z,66.00
2019-02-20T08:00:03.026Z,66.20
2019-02-20T08:02:36.514Z,66.20
2019-02-20T08:05:10.185Z,63.40
2019-02-20T08:07:43.650Z,60.00
2019-02-20T08:10:17.151Z,59.10
2019-02-20T08:12:50.652Z,58.50
2019-02-20T08:15:24.158Z,57.50
2019-02-20T08:17:57.709Z,56.80
2019-02-20T08:20:31.201Z,57.20
2019-02-20T08:23:04.669Z,57.70
2019-02-20T08:25:38.168Z,57.90
2019-02-20T08:28:11.638Z,58.40
2019-02-20T08:30:45.145Z,58.70
2019-02-20T08:33:18.677Z,58.70
2019-02-20T08:35:52.244Z,59.20
2019-02-20T08:38:25.709Z,59.40
2019-02-20T08:40:59.209Z,59.50
2019-02-20T08:43:32.673Z,59.80
2019-02-20T08:46:06.261Z,60.00
2019-02-20T08:48:39.731Z,60.00
2019-02-20T08:51:13.225Z,60.20
2019-02-20T08:53:46.769Z,60.30
2019-02-20T08:56:20.258Z,60.30
2019-02-20T08:58:53.730Z,60.60
2019-02-20T09:01:27.363Z,60.60
2019-02-20T09:04:00.836Z,60.80
2019-02-20T09:06:34.407Z,60.90
2019-02-20T09:09:07.979Z,61.10
2019-02-20T09:11:41.454Z,61.20
2019-02-20T09:14:15.031Z,61.20
2019-02-20T09:16:48.515Z,61.20
2019-02-20T09:19:22.018Z,61.20
2019-02-20T09:21:55.572Z,61.20
2019-02-20T09:24:29.133Z,61.30
2019-02-20T09:27:02.617Z,61.60
2019-02-20T09:29:36.117Z,61.60
2019-02-20T09:32:09.572Z,61.40
2019-02-20T09:34:43.138Z,60.90
2019-02-20T09:37:16.625Z,60.60
2019-02-20T09:39:50.202Z,60.30
2019-02-20T09:42:23.688Z,59.80
2019-02-20T09:44:57.274Z,59.10
2019-02-20T09:47:30.772Z,58.40
2019-02-20T09:50:05.810Z,57.20
2019-02-20T09:52:39.281Z,56.40
2019-02-20T09:55:13.916Z,56.40
2019-02-20T09:57:47.457Z,55.90
2019-02-20T10:00:21.278Z,56.10
2019-02-20T10:02:54.763Z,56.20
2019-02-20T10:05:28.260Z,56.50
2019-02-20T10:08:01.817Z,56.80
2019-02-20T10:10:35.315Z,57.00
2019-02-20T10:13:10.937Z,57.30
2019-02-20T10:15:44.024Z,57.80
2019-02-20T10:18:17.557Z,58.00
2019-02-20T10:20:51.054Z,58.20
2019-02-20T10:23:24.594Z,58.40
2019-02-20T10:26:00.813Z,58.50
2019-02-20T10:28:33.369Z,58.70
2019-02-20T10:31:06.941Z,58.90
2019-02-20T10:33:40.554Z,59.00
2019-02-20T10:36:14.170Z,59.10
2019-02-20T10:38:47.709Z,59.20
2019-02-20T10:41:21.211Z,59.20
2019-02-20T10:43:54.687Z,59.30
2019-02-20T10:46:28.258Z,59.40
2019-02-20T10:49:01.740Z,59.40
2019-02-20T10:51:35.313Z,59.50
2019-02-20T10:54:08.790Z,59.60
2019-02-20T10:56:43.572Z,59.60
2019-02-20T10:59:17.044Z,59.60
2019-02-20T11:01:50.551Z,59.70
2019-02-20T11:04:24.093Z,59.80
2019-02-20T11:06:57.689Z,59.80
2019-02-20T11:09:31.912Z,59.80
2019-02-20T11:12:05.608Z,59.90
2019-02-20T11:14:39.105Z,60.00
2019-02-20T11:17:12.616Z,60.00
2019-02-20T11:19:46.088Z,60.10
2019-02-20T11:22:20.646Z,60.10
2019-02-20T11:24:54.336Z,60.20
2019-02-20T11:27:27.922Z,60.20
2019-02-20T11:30:01.395Z,60.20
2019-02-20T11:32:34.896Z,60.30
2019-02-20T11:35:08.960Z,59.80
2019-02-20T11:37:42.529Z,59.20
2019-02-20T11:40:16.037Z,59.00
2019-02-20T11:42:49.593Z,58.10
2019-02-20T11:45:23.209Z,58.20
2019-02-20T11:47:56.745Z,58.00
2019-02-20T11:50:30.248Z,57.60
2019-02-20T11:53:03.818Z,57.40
2019-02-20T11:55:37.317Z,58.00
2019-02-20T11:58:10.805Z,58.40
2019-02-20T12:00:44.381Z,58.60
2019-02-20T12:03:17.857Z,58.70
2019-02-20T12:05:51.366Z,58.70
2019-02-20T12:08:24.954Z,58.80
2019-02-20T12:10:58.542Z,58.90
2019-02-20T12:13:32.021Z,59.00
2019-02-20T12:16:05.544Z,59.00
2019-02-20T12:18:39.160Z,59.10
2019-02-20T12:21:12.906Z,59.20
2019-02-20T12:23:46.468Z,59.20
2019-02-20T12:26:19.967Z,59.20
2019-02-20T12:28:53.437Z,59.30
2019-02-20T12:31:26.941Z,59.40
2019-02-20T12:34:01.633Z,59.40
2019-02-20T12:36:35.354Z,59.40
2019-02-20T12:39:08.822Z,59.50
2019-02-20T12:41:42.321Z,59.50
2019-02-20T12:44:15.865Z,59.50
2019-02-20T12:46:49.361Z,59.60
2019-02-20T12:49:22.829Z,59.40
2019-02-20T12:51:56.398Z,59.10
2019-02-20T12:54:29.893Z,59.30
2019-02-20T12:57:03.515Z,59.40
2019-02-20T12:59:37.089Z,59.50
2019-02-20T13:02:10.582Z,59.50
2019-02-20T13:04:44.078Z,59.70
2019-02-20T13:07:17.762Z,59.70
2019-02-20T13:09:51.297Z,59.60
2019-02-20T13:12:24.770Z,59.50
2019-02-20T13:14:58.369Z,59.50
2019-02-20T13:17:31.841Z,59.60
2019-02-20T13:20:07.757Z,59.60
2019-02-20T13:22:41.293Z,59.70
2019-02-20T13:25:14.857Z,59.80
2019-02-20T13:27:50.193Z,59.80
2019-02-20T13:30:23.758Z,59.80
2019-02-20T13:32:57.250Z,59.90
2019-02-20T13:35:30.805Z,60.00
2019-02-20T13:38:04.430Z,60.10
2019-02-20T13:40:37.942Z,60.30
2019-02-20T13:43:11.560Z,60.70
2019-02-20T13:45:45.141Z,61.10
2019-02-20T13:48:18.613Z,61.50
2019-02-20T13:50:52.189Z,61.70
2019-02-20T13:53:25.740Z,62.70
2019-02-20T13:55:59.309Z,63.80
2019-02-20T13:58:33.225Z,64.10
2019-02-20T14:01:06.802Z,63.80
2019-02-20T14:03:40.357Z,62.50
2019-02-20T14:06:15.112Z,60.60
2019-02-20T14:08:48.716Z,58.90
2019-02-20T14:11:22.377Z,57.70
2019-02-20T14:13:55.910Z,57.00
2019-02-20T14:16:29.642Z,56.70
2019-02-20T14:19:03.354Z,56.10
2019-02-20T14:21:37.345Z,55.70
2019-02-20T14:24:10.895Z,55.40
2019-02-20T14:26:44.555Z,56.10
2019-02-20T14:29:18.172Z,56.70
2019-02-20T14:31:51.671Z,57.10
2019-02-20T14:34:25.209Z,57.80
2019-02-20T14:36:58.730Z,58.00
2019-02-20T14:39:32.346Z,58.40
2019-02-20T14:42:05.905Z,57.70
2019-02-20T14:44:39.801Z,58.60
2019-02-20T14:47:13.516Z,58.90
2019-02-20T14:49:47.062Z,59.20
2019-02-20T14:52:20.629Z,59.20
2019-02-20T14:54:54.114Z,59.60
2019-02-20T14:57:27.611Z,59.80
2019-02-20T15:00:01.149Z,59.80
2019-02-20T15:02:34.730Z,60.00
2019-02-20T15:05:08.418Z,60.20
2019-02-20T15:07:42.292Z,60.20
2019-02-20T15:10:15.850Z,60.30
2019-02-20T15:12:49.431Z,60.30
2019-02-20T15:15:22.975Z,60.30
2019-02-20T15:17:56.614Z,60.30
2019-02-20T15:20:30.470Z,60.20
2019-02-20T15:23:04.058Z,60.10
2019-02-20T15:25:37.669Z,60.10
2019-02-20T15:28:11.407Z,60.10
2019-02-20T15:30:45.241Z,60.10
2019-02-20T15:33:18.819Z,60.10
2019-02-20T15:35:52.393Z,60.00
2019-02-20T15:38:25.891Z,60.10
2019-02-20T15:40:59.513Z,60.30
2019-02-20T15:43:33.078Z,60.40
2019-02-20T15:46:06.610Z,60.60
2019-02-20T15:48:40.337Z,60.80
2019-02-20T15:51:13.944Z,61.10
2019-02-20T15:53:47.918Z,61.30
2019-02-20T15:56:21.533Z,61.40
2019-02-20T15:58:55.020Z,61.30
2019-02-20T16:01:28.509Z,61.20
2019-02-20T16:04:02.143Z,61.30
2019-02-20T16:06:35.616Z,61.40
2019-02-20T16:09:10.130Z,61.10
2019-02-20T16:11:43.744Z,61.20
2019-02-20T16:14:17.394Z,61.30
2019-02-20T16:16:51.266Z,61.20
2019-02-20T16:19:24.882Z,60.10
2019-02-20T16:21:58.456Z,60.10
2019-02-20T16:24:31.998Z,60.30
2019-02-20T16:27:05.574Z,60.40
2019-02-20T16:29:39.191Z,60.70
2019-02-20T16:32:12.756Z,60.90
2019-02-20T16:34:46.263Z,60.60
2019-02-20T16:37:21.667Z,55.90
2019-02-20T16:39:55.224Z,56.20
2019-02-20T16:42:28.891Z,56.50
2019-02-20T16:45:02.462Z,57.30
2019-02-20T16:47:36.021Z,58.30
2019-02-20T16:50:09.628Z,58.70
2019-02-20T16:52:43.370Z,59.20
2019-02-20T16:55:20.894Z,59.70
2019-02-20T16:57:56.772Z,59.90
2019-02-20T17:00:27.802Z,59.90
2019-02-20T17:03:01.465Z,59.70
2019-02-20T17:05:35.041Z,59.90
2019-02-20T17:08:08.889Z,60.70
2019-02-20T17:10:42.433Z,61.00
2019-02-20T17:13:16.481Z,60.90
2019-02-20T17:15:50.046Z,60.90
2019-02-20T17:18:23.541Z,61.00
2019-02-20T17:20:57.151Z,61.10
2019-02-20T17:23:30.901Z,61.30
2019-02-20T17:26:04.706Z,61.30
2019-02-20T17:28:38.265Z,61.30
2019-02-20T17:31:11.982Z,61.40
2019-02-20T17:33:45.724Z,61.40
2019-02-20T17:36:19.565Z,61.20
2019-02-20T17:38:53.086Z,61.20
2019-02-20T17:41:26.674Z,61.00
2019-02-20T17:44:00.239Z,61.00
2019-02-20T17:46:33.783Z,61.10
2019-02-20T17:49:07.361Z,61.20
2019-02-20T17:51:40.828Z,60.90
2019-02-20T17:54:14.398Z,60.70
2019-02-20T17:56:47.865Z,61.00
2019-02-20T17:59:21.725Z,61.40
2019-02-20T18:01:55.314Z,61.90
2019-02-20T18:04:28.808Z,62.20
2019-02-20T18:07:02.273Z,62.40
2019-02-20T18:09:35.772Z,62.20
2019-02-20T18:12:09.339Z,59.50
2019-02-20T18:14:42.833Z,59.60
2019-02-20T18:17:16.306Z,60.30
2019-02-20T18:19:49.862Z,60.90
2019-02-20T18:22:23.481Z,60.90
2019-02-20T18:24:57.054Z,60.90
2019-02-20T18:27:30.532Z,61.00
2019-02-20T18:30:05.834Z,61.00
2019-02-20T18:32:39.341Z,61.10
2019-02-20T18:35:15.807Z,61.20
2019-02-20T18:37:49.419Z,61.40
2019-02-20T18:40:22.987Z,61.50
2019-02-20T18:42:56.462Z,61.80
2019-02-20T18:45:30.030Z,61.90
2019-02-20T18:48:03.589Z,62.10
2019-02-20T18:50:37.094Z,62.10
2019-02-20T18:53:10.621Z,62.30
2019-02-20T18:55:44.131Z,62.50
2019-02-20T18:58:19.060Z,62.70
2019-02-20T19:00:52.707Z,62.90
2019-02-20T19:03:26.230Z,62.90
2019-02-20T19:05:59.737Z,63.00
2019-02-20T19:08:36.381Z,63.10
2019-02-20T19:11:27.925Z,63.20
2019-02-20T19:14:16.431Z,63.40
2019-02-20T19:17:17.322Z,62.30
2019-02-20T19:20:16.569Z,61.80
2019-02-20T19:22:58.812Z,60.50
2019-02-20T19:25:56.826Z,60.10
2019-02-20T19:28:45.184Z,60.40
2019-02-20T19:31:27.086Z,60.80
2019-02-20T19:34:23.213Z,61.20
2019-02-20T19:37:18.087Z,61.40
2019-02-20T19:39:54.660Z,61.60
2019-02-20T19:42:33.890Z,61.60
2019-02-20T19:45:28.926Z,61.70
2019-02-20T19:48:20.742Z,61.90
2019-02-20T19:51:12.429Z,62.10
2019-02-20T19:54:11.830Z,62.20
2019-02-20T19:56:54.183Z,62.30
2019-02-20T19:59:45.778Z,62.50
2019-02-20T20:02:46.767Z,62.80
2019-02-20T20:05:32.650Z,62.80
2019-02-20T20:08:24.375Z,62.80
2019-02-20T20:11:12.818Z,62.90
2019-02-20T20:14:08.505Z,63.00
2019-02-20T20:16:47.655Z,63.10
2019-02-20T20:19:38.996Z,63.20
2019-02-20T20:22:24.110Z,63.20
2019-02-20T20:25:15.831Z,63.30
2019-02-20T20:27:52.489Z,63.40
2019-02-20T20:30:38.414Z,63.60
2019-02-20T20:33:21.085Z,63.90
2019-02-20T20:36:28.308Z,64.00
2019-02-20T20:39:19.609Z,64.20
2019-02-20T20:42:18.781Z,63.00
2019-02-20T20:45:16.268Z,63.00
2019-02-20T20:48:12.404Z,63.30
2019-02-20T20:51:10.679Z,64.00
2019-02-20T20:54:23.082Z,64.30
2019-02-20T20:57:20.842Z,64.50
2019-02-20T20:59:57.490Z,64.10
2019-02-20T21:02:37.188Z,64.20
2019-02-20T21:05:16.802Z,64.20
2019-02-20T21:07:53.503Z,64.30
2019-02-20T21:10:53.081Z,64.30
2019-02-20T21:13:45.844Z,64.30
2019-02-20T21:16:28.370Z,64.30
2019-02-20T21:19:21.476Z,64.30
2019-02-20T21:22:03.919Z,64.30
2019-02-20T21:25:04.670Z,64.40
2019-02-20T21:27:46.993Z,64.40
2019-02-20T21:30:35.592Z,64.40
2019-02-20T21:33:26.997Z,64.40
2019-02-20T21:36:15.489Z,64.40
2019-02-20T21:39:14.729Z,64.40
2019-02-20T21:41:57.384Z,64.50
2019-02-20T21:44:45.595Z,64.50
2019-02-20T21:47:38.945Z,64.60
2019-02-20T21:50:29.541Z,64.60
2019-02-20T21:53:17.717Z,64.60
2019-02-20T21:56:09.556Z,64.70
2019-02-20T21:59:04.685Z,64.70
2019-02-20T22:02:02.522Z,64.80
2019-02-20T22:04:57.086Z,64.80
2019-02-20T22:07:36.155Z,64.90
2019-02-20T22:10:35.719Z,64.90
2019-02-20T22:13:14.877Z,65.00
2019-02-20T22:16:12.674Z,65.00
2019-02-20T22:18:54.454Z,65.00
2019-02-20T22:21:47.539Z,65.10
2019-02-20T22:24:54.608Z,65.10
2019-02-20T22:27:55.479Z,65.10
2019-02-20T22:30:51.069Z,65.20
2019-02-20T22:33:30.229Z,65.30
2019-02-20T22:36:35.181Z,65.30
2019-02-20T22:39:43.633Z,65.30
2019-02-20T22:42:25.980Z,65.40
2019-02-20T22:45:14.737Z,65.40
2019-02-20T22:48:11.106Z,65.40
2019-02-20T22:50:53.518Z,65.40
2019-02-20T22:53:45.109Z,65.40
2019-02-20T22:56:40.106Z,65.50
2019-02-20T22:59:42.250Z,65.40
2019-02-20T23:02:46.587Z,65.50
2019-02-20T23:05:35.140Z,65.50
2019-02-20T23:08:14.429Z,65.60
2019-02-20T23:10:53.629Z,65.60
2019-02-20T23:13:45.357Z,65.70
2019-02-20T23:16:18.829Z,65.90
2019-02-20T23:18:52.317Z,66.10
2019-02-20T23:21:25.787Z,66.20
2019-02-20T23:23:59.362Z,66.20
2019-02-20T23:26:32.826Z,66.20
2019-02-20T23:29:06.322Z,66.40
2019-02-20T23:31:39.842Z,66.40
2019-02-20T23:34:13.512Z,66.40
2019-02-20T23:36:47.044Z,66.40
2019-02-20T23:39:20.671Z,66.50
2019-02-20T23:41:54.169Z,66.50
2019-02-20T23:44:27.667Z,66.50
2019-02-20T23:47:01.129Z,66.40
2019-02-20T23:49:34.627Z,66.30
2019-02-20T23:52:08.096Z,66.50
2019-02-20T23:54:41.649Z,66.50
2019-02-20T23:57:15.186Z,66.60
2019-02-20T23:59:48.674Z,66.60
